M I D A S
Marine Information and Data Acquisition System
Tripno 1153 of the Zeeleeuw from 2006-08-25 06:30:52 to 2006-08-25 13:53:13
Back to CruiseResearch ActivitiesStationsMapUnderway DataData graphs

EquipmentUnitsComment
TimeDGPSUTC
LatitudeDGPSDM.mWGS84
LongitudeDGPSDM.mWGS84
HeadingGyrodeg 
SOGDGPSknotsSpeed over ground
COGDGPSdegCourse over ground
DepthEcho soundermeters200 kHz
Missing or incorrect values are displayed as -999
Navigation data collected by the RV Zeeleeuw from 2006-08-25 06:23:06 to 2006-08-25 14:06:03
Time Latitude Longitude Heading SOG COG Depth
2006-08-25 06:24:11 51°13.617 2°56.032 109.5 3.3 290 -999
2006-08-25 06:25:12 51°13.645 2°55.938 120.7 4.3 299 -999
2006-08-25 06:26:12 51°13.672 2°55.84 106.6 3.7 289 -999
2006-08-25 06:27:11 51°13.683 2°55.758 90.9 2.5 274 9.8
2006-08-25 06:28:11 51°13.689 2°55.749 44 1.2 32 10.6
2006-08-25 06:29:11 51°13.737 2°55.721 330.4 5 325 9.4
2006-08-25 06:30:10 51°13.826 2°55.639 337.7 6.9 335 9.9
2006-08-25 06:31:11 51°13.942 2°55.556 339.3 7.8 337 9.9
2006-08-25 06:32:10 51°14.059 2°55.473 339 7.8 336 9.5
2006-08-25 06:33:10 51°14.172 2°55.383 332.4 7.5 328 9.3
2006-08-25 06:34:11 51°14.269 2°55.245 316.3 8.3 312 9.4
2006-08-25 06:35:10 51°14.365 2°55.064 314.8 9.8 310 9.7
2006-08-25 06:36:11 51°14.462 2°54.828 304.9 11 294 9.8
2006-08-25 06:37:11 51°14.543 2°54.549 305.2 11.9 296 9.6
2006-08-25 06:38:11 51°14.628 2°54.26 304.1 12.1 295 9.5
2006-08-25 06:39:11 51°14.708 2°53.967 304 11.9 296 9.9
2006-08-25 06:40:11 51°14.793 2°53.682 302.1 11.9 295 9.2
2006-08-25 06:41:10 51°14.878 2°53.404 305.3 11.8 296 9.2
2006-08-25 06:42:10 51°14.96 2°53.113 303 12.1 294 9.6
2006-08-25 06:43:11 51°15.041 2°52.811 298.5 12.3 290 9.6
2006-08-25 06:44:11 51°15.11 2°52.504 298 12.3 289 9.8
2006-08-25 06:45:11 51°15.179 2°52.199 300.3 12.3 291 10.1
2006-08-25 06:46:11 51°15.248 2°51.891 298 12.4 289 10.8
2006-08-25 06:47:11 51°15.292 2°51.569 284 12.6 274 11.3
2006-08-25 06:48:11 51°15.267 2°51.232 268.9 12.9 263 11.5
2006-08-25 06:49:11 51°15.252 2°50.892 274.3 13 268 11.5
2006-08-25 06:50:11 51°15.239 2°50.554 272.9 12.7 265 11.4
2006-08-25 06:51:11 51°15.228 2°50.217 275.3 12.8 269 11.9
2006-08-25 06:52:11 51°15.225 2°49.879 277 12.8 269 11.9
2006-08-25 06:53:11 51°15.224 2°49.542 275.8 12.7 270 11.8
2006-08-25 06:54:11 51°15.222 2°49.204 276 12.7 270 11.8
2006-08-25 06:55:11 51°15.218 2°48.866 274.4 12.7 269 11.8
2006-08-25 06:56:11 51°15.216 2°48.53 275.8 12.7 268 11.9
2006-08-25 06:57:11 51°15.213 2°48.193 275.8 12.8 270 10.7
2006-08-25 06:58:11 51°15.219 2°47.861 276.8 12.5 269 9
2006-08-25 06:59:11 51°15.22 2°47.531 276.3 12.5 270 8.7
2006-08-25 07:00:11 51°15.221 2°47.199 276 12.5 270 9.2
2006-08-25 07:01:11 51°15.229 2°46.869 277.5 12.5 272 10.1
2006-08-25 07:02:11 51°15.236 2°46.535 278.6 12.6 272 11.3
2006-08-25 07:03:11 51°15.244 2°46.199 278 12.7 271 12.9
2006-08-25 07:04:11 51°15.251 2°45.865 278 12.6 272 14
2006-08-25 07:05:09 51°15.26 2°45.542 279.2 12.7 271 14.9
2006-08-25 07:06:11 51°15.272 2°45.195 280.8 12.6 274 16
2006-08-25 07:07:11 51°15.282 2°44.857 278.8 12.8 272 17.2
2006-08-25 07:08:10 51°15.288 2°44.528 279.4 12.7 273 16.3
2006-08-25 07:09:10 51°15.303 2°44.196 281.7 12.5 276 14
2006-08-25 07:10:11 51°15.321 2°43.858 282.6 12.6 275 12
2006-08-25 07:11:11 51°15.341 2°43.527 281.4 12.6 275 12
2006-08-25 07:12:11 51°15.355 2°43.197 276.7 12.5 269 11.5
2006-08-25 07:13:11 51°15.335 2°42.865 268.4 12.8 262 11.5
2006-08-25 07:14:11 51°15.313 2°42.531 270.4 12.7 264 10.5
2006-08-25 07:15:10 51°15.308 2°42.215 278.5 10.2 272 10.2
2006-08-25 07:16:10 51°15.338 2°42.05 315.4 4.5 295 9.7
2006-08-25 07:17:10 51°15.365 2°41.971 327.1 3 300 9.7
2006-08-25 07:18:11 51°15.394 2°41.912 342.1 2.6 315 9.6
2006-08-25 07:19:11 51°15.423 2°41.871 346.8 2.2 322 9.4
2006-08-25 07:20:11 51°15.447 2°41.835 342.5 1.7 308 9.3
2006-08-25 07:21:11 51°15.44 2°41.813 345.7 1.3 204 5.5
2006-08-25 07:22:11 51°15.418 2°41.799 3.6 1.4 202 9.5
2006-08-25 07:23:11 51°15.395 2°41.784 21 1.6 199 9.9
2006-08-25 07:24:10 51°15.372 2°41.764 40.8 1.6 215 10.2
2006-08-25 07:25:10 51°15.349 2°41.738 64.2 1.6 223 10.2
2006-08-25 07:26:11 51°15.328 2°41.708 80 1.6 227 10
2006-08-25 07:27:11 51°15.31 2°41.683 90.8 1.3 217 10.2
2006-08-25 07:28:10 51°15.292 2°41.664 93.4 1.3 208 10.6
2006-08-25 07:29:11 51°15.276 2°41.649 87.8 1 209 10.5
2006-08-25 07:30:11 51°15.258 2°41.637 79.1 1.1 209 10.6
2006-08-25 07:31:11 51°15.242 2°41.622 71.1 1.2 203 10.8
2006-08-25 07:32:11 51°15.228 2°41.615 59.7 0.4 119 11
2006-08-25 07:33:11 51°15.248 2°41.615 358.8 2.3 337 10.9
2006-08-25 07:34:10 51°15.289 2°41.539 307.5 5.1 288 10.3
2006-08-25 07:35:11 51°15.297 2°41.392 291.3 4.2 272 10.2
2006-08-25 07:36:10 51°15.289 2°41.344 316.9 1.4 192 10
2006-08-25 07:37:11 51°15.263 2°41.338 309.1 1.5 181 9.8
2006-08-25 07:38:11 51°15.245 2°41.323 297.5 1.3 206 10.2
2006-08-25 07:39:10 51°15.225 2°41.313 279.2 1.3 195 10.4
2006-08-25 07:40:11 51°15.207 2°41.304 260.8 1.2 204 10.6
2006-08-25 07:41:11 51°15.19 2°41.293 243.6 1.1 203 10.4
2006-08-25 07:42:11 51°15.173 2°41.281 229.2 1.1 205 10.5
2006-08-25 07:43:10 51°15.154 2°41.267 223.8 1.3 207 10.1
2006-08-25 07:44:11 51°15.135 2°41.251 222.8 1.3 208 11
2006-08-25 07:45:11 51°15.116 2°41.236 226.5 1.3 207 10.7
2006-08-25 07:46:11 51°15.098 2°41.221 228.9 1.3 207 10.7
2006-08-25 07:47:11 51°15.078 2°41.205 229.2 1.3 207 11
2006-08-25 07:48:11 51°15.059 2°41.19 230.5 1.3 206 11.3
2006-08-25 07:49:11 51°15.036 2°41.163 242.4 2.8 230 11.2
2006-08-25 07:50:11 51°15.028 2°41.073 306.6 3.7 287 11
2006-08-25 07:51:11 51°15.068 2°41.03 2.9 2.4 345 10.8
2006-08-25 07:52:10 51°15.096 2°41.015 353.5 1.4 329 10.7
2006-08-25 07:53:11 51°15.092 2°41 350 0.8 207 10.7
2006-08-25 07:54:11 51°15.077 2°40.994 10.4 1.2 192 10.8
2006-08-25 07:55:11 51°15.074 2°40.986 2.6 0.3 252 10.8
2006-08-25 07:56:10 51°15.067 2°40.978 10.7 0.7 206 10.9
2006-08-25 07:57:10 51°15.053 2°40.972 24.6 0.9 196 10.8
2006-08-25 07:58:11 51°15.035 2°40.964 42.8 1.1 195 10.9
2006-08-25 07:59:11 51°15.015 2°40.953 56.1 1.3 198 11
2006-08-25 08:00:10 51°14.996 2°40.942 62.3 1.3 202 11
2006-08-25 08:01:10 51°14.976 2°40.928 66.6 1.3 206 11.4
2006-08-25 08:02:11 51°14.955 2°40.913 67.6 1.3 207 11.4
2006-08-25 08:03:10 51°14.934 2°40.898 66.1 1.5 200 11.2
2006-08-25 08:04:11 51°14.917 2°40.892 54.3 0.4 120 11.8
2006-08-25 08:05:11 51°14.937 2°40.885 349.1 2.1 322 11.4
2006-08-25 08:06:10 51°14.95 2°40.81 287.4 3.2 267 11.2
2006-08-25 08:07:11 51°14.951 2°40.739 317 2 272 11.4
2006-08-25 08:08:10 51°14.948 2°40.7 325.1 1.2 253 11.4
2006-08-25 08:09:09 51°14.935 2°40.678 332.9 1.3 214 11.5
2006-08-25 08:10:11 51°14.919 2°40.658 329.7 1.1 230 11.5
2006-08-25 08:11:10 51°14.902 2°40.642 315.5 1.3 203 11.6
2006-08-25 08:12:10 51°14.879 2°40.632 303.5 1.4 190 11.6
2006-08-25 08:13:10 51°14.856 2°40.626 290.1 1.3 187 11.7
2006-08-25 08:14:10 51°14.833 2°40.624 271.7 1.3 182 11.9
2006-08-25 08:15:11 51°14.812 2°40.62 254 1.2 186 11.8
2006-08-25 08:16:11 51°14.791 2°40.615 234.3 1.2 186 11.5
2006-08-25 08:17:10 51°14.771 2°40.606 220.5 1.3 198 11.8
2006-08-25 08:18:10 51°14.749 2°40.596 211 1.5 198 11.9
2006-08-25 08:19:11 51°14.721 2°40.579 214.9 2.6 208 11.9
2006-08-25 08:20:11 51°14.686 2°40.502 270.4 4 253 11.7
2006-08-25 08:21:10 51°14.701 2°40.42 339.8 2.9 320 12
2006-08-25 08:22:10 51°14.742 2°40.382 351 2.8 334 11.8
2006-08-25 08:23:10 51°14.778 2°40.347 341.8 2.2 316 11.9
2006-08-25 08:24:10 51°14.791 2°40.311 337.1 1 276 12.1
2006-08-25 08:25:10 51°14.779 2°40.292 336.3 1.1 216 12.4
2006-08-25 08:26:10 51°14.767 2°40.273 327.6 1.1 222 12.4
2006-08-25 08:27:10 51°14.752 2°40.257 320.5 1.2 205 12.4
2006-08-25 08:28:10 51°14.731 2°40.244 315.3 1.4 197 12.4
2006-08-25 08:29:11 51°14.706 2°40.235 305.9 1.5 189 12.2
2006-08-25 08:30:10 51°14.682 2°40.232 288.2 1.4 182 12.1
2006-08-25 08:31:11 51°14.659 2°40.23 274.3 1.3 181 11.9
2006-08-25 08:32:10 51°14.638 2°40.228 261.4 1.2 185 12.5
2006-08-25 08:33:11 51°14.618 2°40.224 242 1.1 192 12.2
2006-08-25 08:34:11 51°14.599 2°40.217 228.4 1.2 190 12.2
2006-08-25 08:35:11 51°14.569 2°40.183 242.2 3.6 230 12.3
2006-08-25 08:36:10 51°14.56 2°40.086 307.7 3.7 288 12.4
2006-08-25 08:37:10 51°14.602 2°40.031 348.4 3.6 333 12.3
2006-08-25 08:38:10 51°14.642 2°39.984 329 2.7 306 12.8
2006-08-25 08:39:10 51°14.661 2°39.933 333 1.8 299 12.4
2006-08-25 08:40:10 51°14.657 2°39.908 337.9 1 221 13.1
2006-08-25 08:41:10 51°14.642 2°39.894 349.4 0.9 215 12.6
2006-08-25 08:42:10 51°14.627 2°39.882 354 1 201 12.8
2006-08-25 08:43:11 51°14.618 2°39.87 351.1 0.5 258 13.1
2006-08-25 08:44:10 51°14.613 2°39.857 349.8 0.7 219 13.1
2006-08-25 08:45:10 51°14.606 2°39.844 346.7 0.7 268 12.7
2006-08-25 08:46:10 51°14.599 2°39.83 345 0.8 215 12.8
2006-08-25 08:47:10 51°14.586 2°39.818 348.9 1 204 12.9
2006-08-25 08:48:10 51°14.567 2°39.809 1.5 1.4 189 12.8
2006-08-25 08:49:10 51°14.543 2°39.802 25.7 0.8 191 12.6
2006-08-25 08:50:10 51°14.536 2°39.798 14.7 0.9 195 12.9
2006-08-25 08:51:11 51°14.54 2°39.787 346.2 1.4 311 12.6
2006-08-25 08:52:11 51°14.557 2°39.676 280.9 6.2 271 12.9
2006-08-25 08:53:10 51°14.535 2°39.498 243.5 6.5 235 13.9
2006-08-25 08:54:10 51°14.47 2°39.398 230.6 4.7 229 13.1
2006-08-25 08:55:10 51°14.436 2°39.311 266.9 3.1 245 13
2006-08-25 08:56:11 51°14.415 2°39.27 277.9 1.3 180 13.4
2006-08-25 08:57:11 51°14.395 2°39.282 258.8 1.1 165 12.6
2006-08-25 08:58:10 51°14.379 2°39.285 244.9 0.9 177 12.2
2006-08-25 08:59:11 51°14.363 2°39.281 233.3 1.1 195 12.2
2006-08-25 09:00:11 51°14.345 2°39.272 222.9 1.2 200 12.4
2006-08-25 09:01:11 51°14.325 2°39.261 216.4 1.3 205 12.5
2006-08-25 09:02:11 51°14.305 2°39.248 212.2 1.3 202 12.7
2006-08-25 09:03:11 51°14.283 2°39.235 211.4 1.3 201 12.7
2006-08-25 09:04:11 51°14.262 2°39.221 216.3 1.4 205 12.5
2006-08-25 09:05:11 51°14.24 2°39.206 221.9 1.4 206 12.8
2006-08-25 09:06:11 51°14.218 2°39.191 224.2 1.5 207 12.4
2006-08-25 09:07:11 51°14.196 2°39.176 225.7 1.4 205 12.5
2006-08-25 09:08:11 51°14.175 2°39.159 227.6 1.5 208 11.4
2006-08-25 09:09:11 51°14.152 2°39.142 230 1.5 206 11.6
2006-08-25 09:10:11 51°14.13 2°39.125 227.3 1.5 207 12.3
2006-08-25 09:11:10 51°14.107 2°39.107 228.7 1.6 204 12.4
2006-08-25 09:12:11 51°14.085 2°39.09 226.2 1.4 208 12.6
2006-08-25 09:13:10 51°14.064 2°39.074 227.5 1.4 205 12.9
2006-08-25 09:14:11 51°14.041 2°39.056 225.7 1.5 208 12.8
2006-08-25 09:15:11 51°14.018 2°39.038 225.4 1.5 203 13
2006-08-25 09:16:11 51°13.995 2°39.021 229.4 1.5 211 13.1
2006-08-25 09:17:11 51°13.972 2°39.003 231.2 1.5 210 13
2006-08-25 09:18:11 51°13.95 2°38.986 232.2 1.4 207 13.2
2006-08-25 09:19:11 51°13.929 2°38.969 233 1.5 205 13.3
2006-08-25 09:20:11 51°13.908 2°38.951 231.8 1.5 206 13.4
2006-08-25 09:21:10 51°13.885 2°38.928 229.5 2.1 218 13.4
2006-08-25 09:22:11 51°13.829 2°38.898 173.5 4.5 182 13.7
2006-08-25 09:23:12 51°13.769 2°38.977 98.7 4.8 102 14.1
2006-08-25 09:24:12 51°13.814 2°39.061 22.8 5 15 14
2006-08-25 09:25:11 51°13.906 2°39.095 19.7 6.4 14 13.8
2006-08-25 09:26:11 51°14.03 2°39.141 19.5 8.1 15 13.3
2006-08-25 09:27:11 51°14.165 2°39.195 18.8 8.5 15 12.6
2006-08-25 09:28:11 51°14.301 2°39.243 15.5 7.5 10 12.4
2006-08-25 09:29:11 51°14.386 2°39.252 6.3 4.1 358 12.8
2006-08-25 09:30:11 51°14.431 2°39.241 357 1.2 334 14.2
2006-08-25 09:31:11 51°14.422 2°39.23 347.2 0.9 199 14.2
2006-08-25 09:32:11 51°14.406 2°39.222 357.4 1.2 195 14
2006-08-25 09:33:11 51°14.392 2°39.216 9 0.2 323 13.6
2006-08-25 09:34:11 51°14.391 2°39.209 4.2 0.4 233 13.7
2006-08-25 09:35:11 51°14.381 2°39.201 10.3 0.8 201 13.4
2006-08-25 09:36:11 51°14.371 2°39.198 12.4 0.2 246 13.1
2006-08-25 09:37:11 51°14.364 2°39.192 13.7 0.7 208 13.3
2006-08-25 09:38:11 51°14.35 2°39.185 24.1 0.9 193 12.7
2006-08-25 09:39:10 51°14.344 2°39.182 15.1 0.3 192 12.9
2006-08-25 09:40:11 51°14.334 2°39.177 16.3 0.9 195 12.5
2006-08-25 09:41:11 51°14.32 2°39.171 23.6 0.3 171 12.7
2006-08-25 09:42:10 51°14.312 2°39.17 18.1 0.6 183 12.7
2006-08-25 09:43:11 51°14.299 2°39.165 29.3 0.9 189 12.5
2006-08-25 09:44:11 51°14.283 2°39.16 41.1 1.1 192 12.7
2006-08-25 09:45:11 51°14.267 2°39.152 47.1 1 196 12.7
2006-08-25 09:46:11 51°14.249 2°39.144 51.7 1.2 195 12.5
2006-08-25 09:47:11 51°14.229 2°39.135 55.4 1.2 202 11.8
2006-08-25 09:48:11 51°14.209 2°39.123 60 1.3 203 10.8
2006-08-25 09:49:11 51°14.19 2°39.11 63 1.2 204 11.1
2006-08-25 09:50:11 51°14.17 2°39.099 60.1 1.3 199 11.7
2006-08-25 09:51:11 51°14.15 2°39.087 64.5 1.2 200 11.8
2006-08-25 09:52:11 51°14.13 2°39.075 64.9 1.3 199 12.2
2006-08-25 09:53:11 51°14.11 2°39.064 67.9 1.2 197 12.6
2006-08-25 09:54:11 51°14.091 2°39.054 66.1 1.2 194 13
2006-08-25 09:55:11 51°14.072 2°39.045 61.8 1.2 197 12.9
2006-08-25 09:56:12 51°14.053 2°39.037 57 1.1 197 13.2
2006-08-25 09:57:10 51°14.036 2°39.032 52.2 0.6 146 13.2
2006-08-25 09:58:11 51°14.041 2°39.041 21 0.3 15 13.3
2006-08-25 09:59:10 51°14.04 2°39.042 22 0.4 184 13.3
2006-08-25 10:00:11 51°14.03 2°39.038 23.7 0.6 193 13.3
2006-08-25 10:01:11 51°14.018 2°39.034 28.7 0.8 189 13.4
2006-08-25 10:02:11 51°14.003 2°39.031 34.8 1 186 13.5
2006-08-25 10:03:11 51°13.986 2°39.026 42.4 1 189 13.6
2006-08-25 10:04:11 51°13.969 2°39.021 51.9 1.1 193 13.6
2006-08-25 10:05:11 51°13.952 2°39.015 57.6 1.1 192 13.5
2006-08-25 10:06:11 51°13.939 2°39.022 59.8 1.4 84 13.7
2006-08-25 10:07:11 51°13.979 2°39.057 13.3 4.2 8 13.4
2006-08-25 10:08:11 51°14.076 2°39.042 357 6.6 351 13.2
2006-08-25 10:09:10 51°14.185 2°39.003 351.4 7.1 344 12.5
2006-08-25 10:10:10 51°14.301 2°38.965 357.3 6.9 350 15.2
2006-08-25 10:11:11 51°14.419 2°38.935 358.6 7.1 352 17.4
2006-08-25 10:12:11 51°14.527 2°38.906 356.9 5 346 17.8
2006-08-25 10:13:11 51°14.574 2°38.863 338.2 2.3 312 17.1
2006-08-25 10:14:11 51°14.579 2°38.826 333.7 1.1 230 16.8
2006-08-25 10:15:11 51°14.56 2°38.811 345.3 1.4 199 17.1
2006-08-25 10:16:11 51°14.537 2°38.799 3.2 1.4 198 17.6
2006-08-25 10:17:11 51°14.513 2°38.788 22.6 1.5 200 17.8
2006-08-25 10:18:11 51°14.49 2°38.776 38 1.4 202 18.2
2006-08-25 10:19:11 51°14.467 2°38.762 50 1.4 202 18
2006-08-25 10:20:11 51°14.445 2°38.748 57.1 1.4 200 18.1
2006-08-25 10:21:11 51°14.423 2°38.734 62.7 1.5 205 17.8
2006-08-25 10:22:12 51°14.402 2°38.721 69.5 1.4 200 17.9
2006-08-25 10:23:11 51°14.381 2°38.709 72 1.3 199 18.1
2006-08-25 10:24:11 51°14.359 2°38.697 72.7 1.4 196 17.9
2006-08-25 10:25:11 51°14.339 2°38.687 71 1.3 196 17.3
2006-08-25 10:26:11 51°14.319 2°38.679 69.3 1.2 193 17.3
2006-08-25 10:27:11 51°14.3 2°38.671 66.4 1.2 192 16.8
2006-08-25 10:28:11 51°14.281 2°38.663 62.4 1.2 190 16
2006-08-25 10:29:11 51°14.261 2°38.656 59.7 1.2 190 16.1
2006-08-25 10:30:11 51°14.241 2°38.649 57.8 1.3 188 15.8
2006-08-25 10:31:11 51°14.222 2°38.643 55.6 1.1 193 15.8
2006-08-25 10:32:11 51°14.203 2°38.637 55.5 1.2 192 16.2
2006-08-25 10:33:11 51°14.182 2°38.631 56.6 1.3 191 16.2
2006-08-25 10:34:11 51°14.163 2°38.624 60.5 1.2 191 15.7
2006-08-25 10:35:11 51°14.143 2°38.618 64.5 1.2 192 15.5
2006-08-25 10:36:11 51°14.124 2°38.613 64.9 1.2 188 15
2006-08-25 10:37:11 51°14.106 2°38.61 66.6 1.1 184 15.1
2006-08-25 10:38:12 51°14.087 2°38.608 65.3 1 182 14.4
2006-08-25 10:39:11 51°14.074 2°38.615 57.5 1.4 82 14
2006-08-25 10:40:11 51°14.137 2°38.656 12.9 6.3 11 14.4
2006-08-25 10:41:11 51°14.252 2°38.711 22.4 7.6 19 15.1
2006-08-25 10:42:11 51°14.373 2°38.771 19.7 7.5 16 18.2
2006-08-25 10:43:11 51°14.461 2°38.81 18.2 3.3 19 18.1
2006-08-25 10:44:12 51°14.485 2°38.828 22.5 0.7 41 18
2006-08-25 10:45:11 51°14.484 2°38.836 35.4 0.6 151 18.6
2006-08-25 10:46:12 51°14.473 2°38.841 38.5 0.7 168 18.1
2006-08-25 10:47:10 51°14.461 2°38.846 38 0.9 169 18.6
2006-08-25 10:48:11 51°14.446 2°38.846 36.4 0.9 171 18.3
2006-08-25 10:49:11 51°14.43 2°38.847 36.7 0.9 182 18.4
2006-08-25 10:50:11 51°14.412 2°38.847 35.9 1.1 176 18.6
2006-08-25 10:51:12 51°14.393 2°38.847 39.1 1.1 180 18.3
2006-08-25 10:52:12 51°14.375 2°38.848 42.3 1.1 179 18.3
2006-08-25 10:53:11 51°14.356 2°38.848 47.5 1.1 180 17.8
2006-08-25 10:54:12 51°14.335 2°38.849 53.6 1.2 182 17.6
2006-08-25 10:55:11 51°14.315 2°38.849 59.8 1.2 177 16.6
2006-08-25 10:56:11 51°14.296 2°38.851 62.9 1.1 177 16
2006-08-25 10:57:10 51°14.277 2°38.853 61.9 1.1 173 15.3
2006-08-25 10:58:11 51°14.259 2°38.856 63.6 1.1 174 15.5
2006-08-25 10:59:10 51°14.241 2°38.861 62.8 1.1 167 15.3
2006-08-25 11:00:10 51°14.222 2°38.865 61.3 1.1 175 15.2
2006-08-25 11:01:11 51°14.202 2°38.87 63 1.1 176 14.7
2006-08-25 11:02:11 51°14.184 2°38.876 63.1 1 172 13.9
2006-08-25 11:03:11 51°14.166 2°38.881 63.3 1.1 171 12.8
2006-08-25 11:04:11 51°14.148 2°38.888 63 1.2 164 11.9
2006-08-25 11:05:10 51°14.131 2°38.896 57.2 1.2 160 11.6
2006-08-25 11:06:11 51°14.112 2°38.905 54.1 1.1 168 12.1
2006-08-25 11:07:10 51°14.095 2°38.913 56.4 1.1 165 12.9
2006-08-25 11:08:11 51°14.076 2°38.921 56.9 1.2 165 13.4
2006-08-25 11:09:11 51°14.058 2°38.929 62 1 161 13.6
2006-08-25 11:10:11 51°14.04 2°38.937 63.9 1.1 162 13.8
2006-08-25 11:11:10 51°14.024 2°38.946 63.9 1.1 160 14.1
2006-08-25 11:12:12 51°14.006 2°38.955 65.2 1 162 14.3
2006-08-25 11:13:10 51°13.99 2°38.963 64.6 1 157 14.5
2006-08-25 11:14:11 51°13.973 2°38.973 65.3 1 160 14.6
2006-08-25 11:15:11 51°13.957 2°38.983 67.5 0.9 153 14.8
2006-08-25 11:16:11 51°13.94 2°38.994 68.1 0.9 159 14.9
2006-08-25 11:17:10 51°13.925 2°39.005 68.3 0.8 156 15.1
2006-08-25 11:18:11 51°13.91 2°39.017 69.1 0.9 148 15.2
2006-08-25 11:19:10 51°13.897 2°39.029 70.4 0.8 140 15.5
2006-08-25 11:20:11 51°13.884 2°39.044 71.9 0.9 138 15.5
2006-08-25 11:21:11 51°13.873 2°39.067 73.8 0.9 133 15.7
2006-08-25 11:22:11 51°13.862 2°39.087 75.2 1 133 15.7
2006-08-25 11:23:11 51°13.852 2°39.11 72.7 1.1 127 15.8
2006-08-25 11:24:10 51°13.842 2°39.133 66.5 1.1 125 15.9
2006-08-25 11:25:10 51°13.833 2°39.156 64.5 0.9 121 15.7
2006-08-25 11:26:12 51°13.824 2°39.18 59.1 1.1 121 15.9
2006-08-25 11:27:12 51°13.816 2°39.206 57.3 1 120 15.9
2006-08-25 11:28:10 51°13.808 2°39.231 57.4 1.1 117 15.8
2006-08-25 11:29:11 51°13.819 2°39.278 29.8 3.1 43 15.8
2006-08-25 11:30:12 51°13.849 2°39.311 7.6 1.7 43 15.9
2006-08-25 11:31:11 51°13.863 2°39.34 8.4 1.3 63 15.8
2006-08-25 11:32:11 51°13.881 2°39.365 352.2 2.3 13 15.7
2006-08-25 11:33:11 51°13.936 2°39.293 307.2 6.7 308 15.9
2006-08-25 11:34:11 51°14.031 2°39.14 319.3 8.5 318 15.3
2006-08-25 11:35:11 51°14.145 2°38.998 321.9 8.7 320 14.2
2006-08-25 11:36:11 51°14.252 2°38.852 325 7.3 324 16
2006-08-25 11:37:11 51°14.318 2°38.782 326.8 3.2 328 18.5
2006-08-25 11:38:11 51°14.334 2°38.768 305.8 0.4 318 18.9
2006-08-25 11:39:10 51°14.338 2°38.748 283.9 0.3 215 19.4
2006-08-25 11:40:11 51°14.33 2°38.752 261.2 0.7 157 18.7
2006-08-25 11:41:12 51°14.317 2°38.76 249 0.9 158 18.7
2006-08-25 11:42:12 51°14.304 2°38.772 248 0.8 146 18
2006-08-25 11:43:11 51°14.293 2°38.787 248.9 0.9 139 17.5
2006-08-25 11:44:11 51°14.282 2°38.807 252.1 1 133 17.3
2006-08-25 11:45:12 51°14.271 2°38.829 250.8 1 130 16.9
2006-08-25 11:46:12 51°14.26 2°38.852 249.5 1.2 124 16.5
2006-08-25 11:47:11 51°14.25 2°38.879 243.3 1.3 118 16.2
2006-08-25 11:48:12 51°14.238 2°38.907 235.4 1.1 119 15.9
2006-08-25 11:49:11 51°14.228 2°38.935 230.6 1.2 119 15.5
2006-08-25 11:50:12 51°14.218 2°38.966 226.3 1.3 115 15
2006-08-25 11:51:11 51°14.208 2°38.997 222 1.3 116 14.5
2006-08-25 11:52:11 51°14.189 2°39.02 206.8 2.4 172 14.5
2006-08-25 11:53:11 51°14.128 2°39.013 214.4 3.8 194 14.7
2006-08-25 11:54:11 51°14.076 2°38.99 223.7 2.6 196 15.1
2006-08-25 11:55:11 51°14.042 2°38.977 229.6 1.8 192 15.3
2006-08-25 11:56:11 51°14.019 2°38.975 233 1.3 179 15.4
2006-08-25 11:57:11 51°14 2°38.98 240.2 0.9 164 15.5
2006-08-25 11:58:10 51°13.989 2°38.937 287.4 2.1 282 15.4
2006-08-25 11:59:11 51°14.007 2°38.901 319.2 1.5 338 15.1
2006-08-25 12:00:12 51°14.023 2°38.906 333.5 0.8 69 14.8
2006-08-25 12:01:10 51°14.023 2°38.933 346.2 1.1 93 15.1
2006-08-25 12:02:11 51°14.02 2°38.965 353.1 1.3 99 15.3
2006-08-25 12:03:11 51°14.017 2°39 1.6 1.3 97 15.6
2006-08-25 12:04:12 51°14.013 2°39.036 9.4 1.4 97 16
2006-08-25 12:05:10 51°14.008 2°39.073 21 1.5 104 16
2006-08-25 12:06:10 51°14.002 2°39.11 34.8 1.4 102 16.2
2006-08-25 12:07:12 51°13.996 2°39.148 47.9 1.4 106 16.1
2006-08-25 12:08:11 51°13.99 2°39.185 62.7 1.5 101 16.6
2006-08-25 12:09:10 51°13.985 2°39.222 74.7 1.4 98 16.7
2006-08-25 12:10:10 51°13.981 2°39.263 80.9 1.6 102 16.9
2006-08-25 12:11:11 51°13.977 2°39.304 84.3 1.5 99 16.8
2006-08-25 12:12:10 51°13.972 2°39.345 85.2 1.6 100 16.8
2006-08-25 12:13:11 51°13.969 2°39.388 83.1 1.6 95 16.7
2006-08-25 12:14:11 51°13.967 2°39.431 79.9 1.6 94 16.2
2006-08-25 12:15:12 51°13.965 2°39.475 79.3 1.7 94 15.4
2006-08-25 12:16:12 51°13.963 2°39.519 78.8 1.6 96 15.6
2006-08-25 12:17:11 51°13.962 2°39.561 76.4 1.6 94 16.1
2006-08-25 12:18:11 51°13.961 2°39.605 71.6 1.7 94 16.6
2006-08-25 12:19:12 51°13.96 2°39.647 67.4 1.6 92 16.9
2006-08-25 12:20:10 51°13.959 2°39.688 63.8 1.6 95 17.1
2006-08-25 12:21:12 51°13.958 2°39.731 66 1.6 94 17.1
2006-08-25 12:22:12 51°13.956 2°39.773 64 1.7 94 16.9
2006-08-25 12:23:10 51°13.956 2°39.813 58.9 1.5 92 17.1
2006-08-25 12:24:10 51°13.955 2°39.854 57.6 1.5 92 17.2
2006-08-25 12:25:12 51°13.955 2°39.899 53.6 1.8 84 17.3
2006-08-25 12:26:11 51°13.977 2°39.957 17.4 2.9 43 17.2
2006-08-25 12:27:12 51°14.017 2°39.978 327.1 2.3 355 16.6
2006-08-25 12:28:12 51°14.043 2°39.936 289.3 2.6 299 16.6
2006-08-25 12:29:11 51°14.069 2°39.867 295.5 3.4 304 16.3
2006-08-25 12:30:12 51°14.105 2°39.79 297.5 3.6 306 15.5
2006-08-25 12:31:12 51°14.141 2°39.71 297.5 3.7 307 16.3
2006-08-25 12:32:12 51°14.187 2°39.639 309.2 3.9 321 16.5
2006-08-25 12:33:11 51°14.222 2°39.585 294.6 2.4 310 16.5
2006-08-25 12:34:10 51°14.235 2°39.534 273.6 1.7 278 16.2
2006-08-25 12:35:12 51°14.25 2°39.5 298.4 1.5 325 16.3
2006-08-25 12:36:11 51°14.265 2°39.505 316.9 0.9 39 16.3
2006-08-25 12:37:10 51°14.273 2°39.526 316.4 1.1 66 15.9
2006-08-25 12:38:12 51°14.282 2°39.552 301.3 1 63 16.2
2006-08-25 12:39:11 51°14.287 2°39.576 264 1 78 16
2006-08-25 12:40:11 51°14.291 2°39.601 251.8 1.2 68 16.2
2006-08-25 12:41:12 51°14.301 2°39.637 283.9 1.6 71 16.2
2006-08-25 12:42:11 51°14.306 2°39.681 309.4 1.7 86 16.2
2006-08-25 12:43:12 51°14.306 2°39.724 309.1 1.7 89 16.4
2006-08-25 12:44:11 51°14.306 2°39.769 305.5 1.6 90 16.4
2006-08-25 12:45:12 51°14.305 2°39.815 295.2 1.8 89 16.4
2006-08-25 12:46:12 51°14.306 2°39.861 283 1.8 86 16.3
2006-08-25 12:47:11 51°14.31 2°39.911 287.9 2.2 84 16.2
2006-08-25 12:48:12 51°14.313 2°39.969 308.3 2.1 90 16.2
2006-08-25 12:49:12 51°14.323 2°40.004 327.4 1.5 28 16.3
2006-08-25 12:50:12 51°14.34 2°39.977 261.6 1.8 258 16.2
2006-08-25 12:51:12 51°14.316 2°39.913 250 3.4 248 16.2
2006-08-25 12:52:12 51°14.293 2°39.822 253.1 3.4 253 16.4
2006-08-25 12:53:11 51°14.283 2°39.745 260 3 261 16.6
2006-08-25 12:54:11 51°14.272 2°39.657 259.1 3.6 259 16.5
2006-08-25 12:55:12 51°14.261 2°39.559 248.9 3.5 245 16.2
2006-08-25 12:56:12 51°14.243 2°39.491 262 2.3 272 16.1
2006-08-25 12:57:12 51°14.255 2°39.477 299.7 0.9 50 16.2
2006-08-25 12:58:12 51°14.262 2°39.505 310.6 1.1 67 16
2006-08-25 12:59:12 51°14.267 2°39.537 304.9 1.3 77 15.9
2006-08-25 13:00:10 51°14.271 2°39.572 294.6 1.4 83 16
2006-08-25 13:01:11 51°14.276 2°39.61 285.5 1.6 81 16
2006-08-25 13:02:12 51°14.28 2°39.651 272.9 1.7 79 16.2
2006-08-25 13:03:10 51°14.285 2°39.692 262.9 1.6 78 16.3
2006-08-25 13:04:12 51°14.29 2°39.734 252.3 1.5 77 16.5
2006-08-25 13:05:12 51°14.295 2°39.774 240.9 1.4 77 16.5
2006-08-25 13:06:12 51°14.301 2°39.813 233 1.5 76 16.4
2006-08-25 13:07:12 51°14.306 2°39.852 226 1.6 79 16.4
2006-08-25 13:08:12 51°14.275 2°39.874 184.1 4.1 161 16.3
2006-08-25 13:09:10 51°14.212 2°40.014 110.7 8.9 100 16.9
2006-08-25 13:10:12 51°14.23 2°40.321 88.6 12.9 85 17
2006-08-25 13:11:11 51°14.25 2°40.666 88.5 13.4 85 16.3
2006-08-25 13:12:10 51°14.264 2°41.016 90.5 13.4 86 16.4
2006-08-25 13:13:12 51°14.283 2°41.383 89.1 13.4 86 17.5
2006-08-25 13:14:12 51°14.301 2°41.738 88.4 13.4 85 19.1
2006-08-25 13:15:12 51°14.321 2°42.096 89.5 13.4 86 20.3
2006-08-25 13:16:12 51°14.341 2°42.451 87.3 13.5 82 19.9
2006-08-25 13:17:12 51°14.374 2°42.807 86.8 13.5 83 19.9
2006-08-25 13:18:12 51°14.395 2°43.165 91.9 13.5 85 19.4
2006-08-25 13:19:12 51°14.42 2°43.523 89 13.6 83 18.9
2006-08-25 13:20:12 51°14.451 2°43.882 88.5 13.6 83 18.4
2006-08-25 13:21:12 51°14.472 2°44.241 90.7 13.6 85 17.3
2006-08-25 13:22:12 51°14.497 2°44.597 90 13.5 83 15.9
2006-08-25 13:23:12 51°14.523 2°44.952 89.3 13.5 83 14.2
2006-08-25 13:24:12 51°14.546 2°45.308 90.1 13.4 85 12.4
2006-08-25 13:25:12 51°14.565 2°45.658 87.9 13 85 11.3
2006-08-25 13:26:12 51°14.59 2°46.003 90.4 13.1 86 12.3
2006-08-25 13:27:12 51°14.613 2°46.35 88.8 13.1 83 14.4
2006-08-25 13:28:11 51°14.637 2°46.691 90.2 13.3 84 15.8
2006-08-25 13:29:12 51°14.666 2°47.048 88.3 13.3 83 15.8
2006-08-25 13:30:12 51°14.692 2°47.401 88.2 13.4 82 15.3
2006-08-25 13:31:12 51°14.719 2°47.755 87.7 13.4 82 14.6
2006-08-25 13:32:12 51°14.739 2°48.107 92.1 13.3 86 14.6
2006-08-25 13:33:12 51°14.756 2°48.458 90.7 13.2 85 14.8
2006-08-25 13:34:12 51°14.779 2°48.806 89.4 13.2 84 15.3
2006-08-25 13:35:12 51°14.802 2°49.155 88.1 13.2 82 15.4
2006-08-25 13:36:12 51°14.83 2°49.505 89.2 13.4 84 15.4
2006-08-25 13:37:12 51°14.856 2°49.856 89 13.4 83 15.2
2006-08-25 13:38:12 51°14.88 2°50.21 90 13.3 84 15.1
2006-08-25 13:39:12 51°14.902 2°50.562 92.9 13.3 87 14.9
2006-08-25 13:40:12 51°14.916 2°50.915 92.4 13.3 86 14.7
2006-08-25 13:41:12 51°14.931 2°51.268 90.8 13.3 86 14.4
2006-08-25 13:42:12 51°14.928 2°51.616 105 13.1 99 14
2006-08-25 13:43:10 51°14.894 2°51.947 105.5 13.1 97 13.4
2006-08-25 13:44:12 51°14.865 2°52.302 104 13 98 13
2006-08-25 13:45:12 51°14.835 2°52.644 105.5 13 98 12.7
2006-08-25 13:46:12 51°14.802 2°52.984 105 12.8 97 12.4
2006-08-25 13:47:11 51°14.763 2°53.311 105.2 12.7 100 13.1
2006-08-25 13:48:10 51°14.721 2°53.638 107.7 12.8 102 13.1
2006-08-25 13:49:10 51°14.674 2°53.971 110.7 13.1 101 13.9
2006-08-25 13:50:11 51°14.615 2°54.308 117.8 12.9 110 13.8
2006-08-25 13:51:10 51°14.536 2°54.615 120.4 12.8 112 13.3
2006-08-25 13:52:12 51°14.44 2°54.933 127.5 13 119 13.4
2006-08-25 13:53:10 51°14.32 2°55.173 132.2 10.9 132 13.1
2006-08-25 13:54:12 51°14.193 2°55.361 143.1 9.5 142 12.9
2006-08-25 13:55:11 51°14.072 2°55.46 156.9 7.9 155 13
2006-08-25 13:56:12 51°13.966 2°55.535 156.7 6.5 156 13.4
2006-08-25 13:57:11 51°13.861 2°55.611 157 7.3 156 12.8
2006-08-25 13:58:11 51°13.767 2°55.701 143.2 5.5 141 12.8
2006-08-25 13:59:10 51°13.713 2°55.792 132.2 4.5 130 14.7
2006-08-25 14:00:12 51°13.671 2°55.875 128.4 3.4 127 12.2
2006-08-25 14:01:11 51°13.645 2°55.935 126.1 2.6 125 12.2
2006-08-25 14:02:10 51°13.624 2°55.99 119.1 2.3 118 12.2
2006-08-25 14:03:11 51°13.611 2°56.041 107.4 1.6 107 11.8
2006-08-25 14:04:12 51°13.605 2°56.072 111.9 1.1 111 10.8
2006-08-25 14:05:11 51°13.599 2°56.09 116.4 0.2 109 10.2